createdAt,value
2023-04-21T00:00:10.633Z,10.30
2023-04-21T00:02:39.997Z,10.38
2023-04-21T00:05:10.314Z,10.37
2023-04-21T00:07:38.357Z,10.00
2023-04-21T00:10:06.811Z,9.91
2023-04-21T00:12:34.033Z,9.93
2023-04-21T00:15:01.192Z,10.33
2023-04-21T00:17:28.719Z,9.91
2023-04-21T00:19:56.094Z,10.88
2023-04-21T00:22:23.263Z,10.49
2023-04-21T00:24:50.745Z,10.33
2023-04-21T00:27:17.934Z,9.99
2023-04-21T00:29:45.110Z,9.75
2023-04-21T00:32:12.618Z,10.38
2023-04-21T00:34:39.779Z,10.38
2023-04-21T00:37:06.990Z,9.92
2023-04-21T00:39:34.703Z,10.01
2023-04-21T00:42:02.092Z,9.98
2023-04-21T00:44:29.469Z,10.43
2023-04-21T00:46:57.939Z,10.51
2023-04-21T00:49:25.419Z,9.92
2023-04-21T00:51:52.633Z,9.97
2023-04-21T00:54:21.437Z,10.87
2023-04-21T00:56:48.720Z,10.58
2023-04-21T00:59:15.900Z,11.08
2023-04-21T01:01:44.379Z,10.26
2023-04-21T01:04:11.753Z,10.84
2023-04-21T01:06:39.054Z,10.58
2023-04-21T01:09:06.767Z,10.29
2023-04-21T01:11:37.212Z,10.99
2023-04-21T01:14:05.402Z,10.89
2023-04-21T01:16:33.710Z,10.15
2023-04-21T01:19:01.142Z,11.54
2023-04-21T01:21:29.050Z,10.42
2023-04-21T01:23:56.548Z,10.20
2023-04-21T01:26:23.764Z,10.45
2023-04-21T01:28:50.925Z,10.34
2023-04-21T01:31:18.678Z,9.89
2023-04-21T01:33:45.899Z,9.79
2023-04-21T01:36:13.107Z,9.38
2023-04-21T01:38:40.933Z,9.30
2023-04-21T01:41:08.473Z,9.53
2023-04-21T01:43:35.975Z,9.82
2023-04-21T01:46:04.360Z,9.91
2023-04-21T01:48:32.611Z,9.42
2023-04-21T01:50:59.784Z,9.14
2023-04-21T01:53:27.299Z,8.98
2023-04-21T01:55:54.467Z,8.92
2023-04-21T01:58:21.772Z,8.92
2023-04-21T02:00:49.302Z,8.95
2023-04-21T02:03:17.026Z,9.36
2023-04-21T02:05:46.173Z,9.12
2023-04-21T02:08:13.382Z,8.79
2023-04-21T02:10:41.661Z,9.36
2023-04-21T02:13:12.129Z,8.81
2023-04-21T02:15:39.347Z,9.09
2023-04-21T02:18:08.397Z,8.98
2023-04-21T02:20:35.979Z,8.99
2023-04-21T02:23:03.205Z,8.96
2023-04-21T02:25:30.836Z,8.96
2023-04-21T02:27:58.250Z,8.72
2023-04-21T02:30:27.154Z,8.50
2023-04-21T02:32:54.510Z,8.52
2023-04-21T02:35:22.086Z,8.38
2023-04-21T02:37:50.981Z,8.44
2023-04-21T02:40:18.146Z,8.49
2023-04-21T02:42:45.827Z,8.76
2023-04-21T02:45:13.131Z,8.90
2023-04-21T02:47:40.400Z,8.94
2023-04-21T02:50:08.054Z,8.98
2023-04-21T02:52:38.347Z,8.95
2023-04-21T02:55:05.949Z,9.11
2023-04-21T02:57:33.353Z,9.11
2023-04-21T03:00:00.696Z,8.99
2023-04-21T03:02:28.031Z,8.72
2023-04-21T03:04:56.545Z,8.56
2023-04-21T03:07:23.813Z,8.45
2023-04-21T03:09:51.214Z,8.48
2023-04-21T03:12:18.646Z,9.35
2023-04-21T03:14:45.951Z,9.25
2023-04-21T03:17:13.135Z,8.92
2023-04-21T03:19:40.703Z,8.63
2023-04-21T03:22:07.876Z,9.38
2023-04-21T03:24:35.491Z,9.40
2023-04-21T03:27:02.949Z,10.35
2023-04-21T03:29:30.665Z,9.93
2023-04-21T03:31:57.966Z,10.09
2023-04-21T03:34:25.574Z,10.02
2023-04-21T03:36:52.789Z,9.77
2023-04-21T03:39:20.545Z,9.48
2023-04-21T03:41:48.688Z,10.31
2023-04-21T03:44:16.130Z,10.35
2023-04-21T03:46:43.312Z,10.04
2023-04-21T03:49:10.836Z,9.72
2023-04-21T03:51:38.211Z,9.93
2023-04-21T03:54:06.069Z,9.67
2023-04-21T03:56:33.659Z,10.08
2023-04-21T03:59:00.890Z,9.67
2023-04-21T04:01:28.071Z,10.58
2023-04-21T04:03:55.953Z,10.73
2023-04-21T04:06:23.262Z,10.93
2023-04-21T04:08:50.446Z,10.22
2023-04-21T04:11:17.976Z,10.13
2023-04-21T04:13:45.140Z,10.20
2023-04-21T04:16:12.437Z,9.83
2023-04-21T04:18:40.079Z,9.86
2023-04-21T04:21:07.560Z,10.19
2023-04-21T04:23:34.944Z,10.42
2023-04-21T04:26:05.576Z,10.89
2023-04-21T04:28:33.771Z,11.18
2023-04-21T04:31:01.089Z,11.12
2023-04-21T04:33:28.822Z,11.06
2023-04-21T04:35:56.015Z,11.78
2023-04-21T04:38:23.180Z,11.84
2023-04-21T04:40:54.042Z,11.57
2023-04-21T04:43:21.492Z,11.29
2023-04-21T04:45:48.674Z,11.24
2023-04-21T04:48:16.354Z,11.05
2023-04-21T04:50:43.605Z,10.97
2023-04-21T04:53:11.097Z,11.34
2023-04-21T04:55:38.636Z,11.71
2023-04-21T04:58:05.812Z,11.27
2023-04-21T05:00:33.256Z,11.99
2023-04-21T05:03:00.937Z,12.17
2023-04-21T05:05:28.250Z,12.27
2023-04-21T05:07:55.579Z,12.18
2023-04-21T05:10:23.347Z,12.54
2023-04-21T05:12:50.644Z,12.65
2023-04-21T05:15:18.316Z,12.67
2023-04-21T05:17:45.844Z,12.77
2023-04-21T05:20:13.239Z,12.87
2023-04-21T05:22:40.874Z,12.97
2023-04-21T05:25:10.049Z,13.43
2023-04-21T05:27:37.194Z,13.34
2023-04-21T05:30:04.530Z,13.57
2023-04-21T05:32:32.200Z,13.60
2023-04-21T05:35:00.293Z,13.74
2023-04-21T05:37:27.525Z,13.80
2023-04-21T05:39:55.061Z,14.07
2023-04-21T05:42:22.377Z,14.47
2023-04-21T05:44:49.539Z,13.60
2023-04-21T05:47:16.991Z,13.48
2023-04-21T05:49:50.067Z,13.61
2023-04-21T05:52:18.007Z,13.91
2023-04-21T05:54:45.251Z,13.70
2023-04-21T05:57:12.476Z,14.20
2023-04-21T05:59:39.955Z,13.77
2023-04-21T06:02:07.577Z,14.25
2023-04-21T06:04:35.201Z,14.29
2023-04-21T06:07:07.020Z,14.03
2023-04-21T06:09:35.385Z,14.19
2023-04-21T06:12:02.894Z,14.44
2023-04-21T06:14:30.357Z,14.52
2023-04-21T06:16:57.801Z,14.20
2023-04-21T06:19:25.028Z,14.58
2023-04-21T06:21:52.420Z,14.35
2023-04-21T06:24:25.208Z,14.31
2023-04-21T06:26:53.259Z,14.11
2023-04-21T06:29:21.023Z,14.53
2023-04-21T06:31:48.493Z,14.24
2023-04-21T06:34:16.242Z,14.19
2023-04-21T06:36:43.765Z,14.35
2023-04-21T06:39:10.944Z,14.61
2023-04-21T06:41:38.171Z,15.06
2023-04-21T06:44:05.781Z,14.36
2023-04-21T06:46:32.965Z,14.72
2023-04-21T06:49:00.123Z,14.74
2023-04-21T06:51:27.654Z,14.62
2023-04-21T06:53:54.850Z,14.62
2023-04-21T06:56:22.053Z,14.82
2023-04-21T06:58:49.679Z,14.99
2023-04-21T07:01:17.119Z,14.91
2023-04-21T07:03:44.464Z,15.41
2023-04-21T07:06:12.341Z,15.53
2023-04-21T07:08:39.541Z,15.61
2023-04-21T07:11:06.699Z,15.32
2023-04-21T07:13:34.141Z,15.73
2023-04-21T07:16:01.637Z,15.65
2023-04-21T07:18:28.780Z,15.99
2023-04-21T07:20:56.338Z,15.73
2023-04-21T07:23:23.688Z,15.82
2023-04-21T07:25:51.761Z,16.06
2023-04-21T07:28:19.318Z,16.03
2023-04-21T07:30:46.593Z,16.12
2023-04-21T07:33:13.870Z,16.20
2023-04-21T07:35:41.488Z,16.38
2023-04-21T07:38:08.865Z,16.83
2023-04-21T07:40:36.000Z,18.15
2023-04-21T07:43:03.574Z,19.07
2023-04-21T07:45:30.761Z,20.78
2023-04-21T07:47:59.188Z,21.28
2023-04-21T07:50:26.838Z,21.41
2023-04-21T07:52:53.966Z,22.82
2023-04-21T07:55:21.164Z,23.92
2023-04-21T07:57:49.016Z,25.32
2023-04-21T08:00:16.514Z,24.48
2023-04-21T08:02:44.172Z,24.75
2023-04-21T08:05:11.626Z,24.16
2023-04-21T08:07:39.493Z,25.29
2023-04-21T08:10:07.553Z,25.66
2023-04-21T08:12:34.802Z,26.18
2023-04-21T08:15:05.867Z,26.01
2023-04-21T08:17:34.103Z,26.75
2023-04-21T08:20:01.680Z,27.08
2023-04-21T08:22:28.943Z,25.60
2023-04-21T08:24:56.770Z,25.56
2023-04-21T08:27:24.202Z,25.73
2023-04-21T08:29:51.559Z,25.68
2023-04-21T08:32:26.433Z,24.68
2023-04-21T08:34:54.648Z,23.12
2023-04-21T08:37:22.973Z,23.18
2023-04-21T08:39:53.693Z,23.75
2023-04-21T08:42:21.251Z,24.27
2023-04-21T08:44:48.967Z,24.30
2023-04-21T08:47:16.371Z,23.20
2023-04-21T08:49:45.294Z,22.34
2023-04-21T08:52:14.500Z,22.08
2023-04-21T08:54:41.980Z,22.82
2023-04-21T08:57:15.222Z,22.65
2023-04-21T08:59:44.960Z,22.24
2023-04-21T09:02:15.573Z,22.67
2023-04-21T09:04:52.048Z,21.91
2023-04-21T09:07:34.328Z,21.66
2023-04-21T09:10:02.027Z,22.16
2023-04-21T09:12:30.051Z,22.30
2023-04-21T09:14:58.270Z,21.62
2023-04-21T09:17:32.685Z,22.18
2023-04-21T09:20:14.412Z,21.67
2023-04-21T09:22:42.324Z,21.75
2023-04-21T09:25:10.083Z,22.01
2023-04-21T09:27:37.952Z,22.04
2023-04-21T09:30:07.287Z,22.13
2023-04-21T09:32:41.773Z,22.49
2023-04-21T09:35:12.457Z,22.28
2023-04-21T09:37:43.559Z,22.23
2023-04-21T09:40:15.084Z,22.30
2023-04-21T09:42:44.691Z,22.45
2023-04-21T09:47:51.372Z,22.34
2023-04-21T09:50:41.757Z,22.72
2023-04-21T09:53:15.686Z,23.07
2023-04-21T09:55:43.504Z,23.30
2023-04-21T09:58:12.476Z,23.53
2023-04-21T10:00:41.004Z,23.27
2023-04-21T10:03:11.575Z,23.81
2023-04-21T10:05:42.063Z,23.41
2023-04-21T10:08:11.954Z,23.05
2023-04-21T10:10:39.846Z,23.07
2023-04-21T10:13:07.640Z,22.50
2023-04-21T10:15:40.160Z,21.97
2023-04-21T10:18:19.816Z,21.92
2023-04-21T10:21:09.715Z,22.09
2023-04-21T10:23:43.602Z,21.75
2023-04-21T10:26:34.846Z,21.96
2023-04-21T10:29:04.462Z,21.79
2023-04-21T10:31:36.710Z,21.55
2023-04-21T10:34:09.828Z,21.85
2023-04-21T10:36:51.794Z,22.10
2023-04-21T10:39:25.389Z,23.14
2023-04-21T10:41:58.198Z,22.90
2023-04-21T10:44:28.828Z,23.51
2023-04-21T10:46:58.964Z,24.06
2023-04-21T10:49:32.706Z,24.09
2023-04-21T10:52:00.736Z,24.31
2023-04-21T10:54:31.757Z,23.92
2023-04-21T10:56:59.561Z,24.20
2023-04-21T10:59:27.316Z,24.32
2023-04-21T11:01:54.898Z,24.28
2023-04-21T11:04:23.470Z,24.50
2023-04-21T11:07:08.104Z,24.71
2023-04-21T11:09:36.710Z,25.14
2023-04-21T11:12:07.504Z,24.42
2023-04-21T11:14:37.183Z,24.28
2023-04-21T11:17:06.387Z,24.37
2023-04-21T11:19:33.839Z,24.27
2023-04-21T11:22:01.499Z,24.58
2023-04-21T11:24:29.100Z,24.61
2023-04-21T11:26:56.847Z,24.63
2023-04-21T11:29:24.500Z,24.58
2023-04-21T11:31:53.819Z,24.94
2023-04-21T11:34:22.136Z,24.39
2023-04-21T11:36:49.632Z,24.38
2023-04-21T11:39:21.830Z,24.25
2023-04-21T11:41:50.856Z,23.98
2023-04-21T11:44:32.113Z,23.85
2023-04-21T11:46:59.766Z,23.49
2023-04-21T11:49:31.965Z,23.10
2023-04-21T11:51:59.644Z,23.42
2023-04-21T11:54:29.362Z,23.50
2023-04-21T11:56:56.832Z,22.60
2023-04-21T11:59:26.343Z,23.47
2023-04-21T12:01:55.109Z,23.11
2023-04-21T12:04:24.587Z,22.94
2023-04-21T12:06:59.306Z,22.93
2023-04-21T12:09:27.612Z,23.26
2023-04-21T12:12:01.782Z,22.85
2023-04-21T12:14:29.471Z,22.45
2023-04-21T12:16:58.425Z,22.47
2023-04-21T12:19:39.688Z,21.61
2023-04-21T12:22:11.783Z,21.67
2023-04-21T12:24:39.971Z,21.78
2023-04-21T12:27:08.523Z,21.41
2023-04-21T12:29:37.491Z,21.47
2023-04-21T12:32:06.474Z,21.77
2023-04-21T12:34:34.865Z,22.16
2023-04-21T12:37:02.954Z,22.36
2023-04-21T12:39:31.539Z,22.28
2023-04-21T12:41:59.900Z,22.07
2023-04-21T12:44:27.478Z,22.40
2023-04-21T12:46:54.989Z,22.46
2023-04-21T12:49:22.752Z,22.43
2023-04-21T12:51:50.224Z,22.38
2023-04-21T12:54:17.735Z,21.54
2023-04-21T12:56:45.955Z,21.30
2023-04-21T12:59:13.631Z,21.79
2023-04-21T13:01:42.701Z,22.06
2023-04-21T13:04:10.658Z,22.31
2023-04-21T13:06:39.238Z,21.84
2023-04-21T13:09:06.848Z,21.90
2023-04-21T13:11:34.721Z,21.90
2023-04-21T13:14:04.126Z,21.77
2023-04-21T13:16:32.659Z,21.86
2023-04-21T13:19:00.340Z,21.57
2023-04-21T13:21:27.984Z,21.34
2023-04-21T13:23:56.245Z,21.63
2023-04-21T13:26:24.489Z,21.70
2023-04-21T13:28:51.864Z,21.37
2023-04-21T13:31:19.499Z,21.66
2023-04-21T13:33:47.210Z,21.07
2023-04-21T13:36:14.821Z,21.44
2023-04-21T13:38:42.417Z,21.26
2023-04-21T13:41:10.135Z,21.24
2023-04-21T13:43:37.637Z,21.28
2023-04-21T13:46:05.557Z,21.17
2023-04-21T13:48:33.464Z,20.95
2023-04-21T13:51:00.933Z,21.27
2023-04-21T13:53:28.505Z,21.39
2023-04-21T13:55:57.538Z,21.46
2023-04-21T13:58:25.394Z,21.59
2023-04-21T14:00:52.799Z,21.08
2023-04-21T14:03:20.967Z,20.85
2023-04-21T14:05:48.577Z,20.85
2023-04-21T14:08:16.066Z,20.45
2023-04-21T14:10:43.854Z,20.49
2023-04-21T14:13:17.422Z,20.66
2023-04-21T14:15:56.135Z,20.39
2023-04-21T14:18:24.019Z,20.22
2023-04-21T14:20:51.472Z,20.06
2023-04-21T14:23:19.202Z,20.51
2023-04-21T14:25:46.598Z,20.58
2023-04-21T14:28:14.710Z,20.78
2023-04-21T14:30:43.232Z,21.06
2023-04-21T14:33:10.952Z,20.53
2023-04-21T14:35:38.464Z,19.98
2023-04-21T14:38:06.206Z,20.67
2023-04-21T14:40:33.880Z,20.83
2023-04-21T14:43:01.268Z,20.78
2023-04-21T14:45:29.046Z,20.85
2023-04-21T14:47:56.531Z,20.98
2023-04-21T14:50:23.961Z,21.86
2023-04-21T14:52:51.679Z,21.17
2023-04-21T14:55:19.182Z,21.12
2023-04-21T14:57:47.130Z,21.18
2023-04-21T15:00:15.063Z,21.19
2023-04-21T15:02:43.234Z,20.87
2023-04-21T15:05:11.313Z,21.43
2023-04-21T15:07:40.524Z,21.17
2023-04-21T15:10:08.821Z,21.12
2023-04-21T15:12:36.805Z,21.26
2023-04-21T15:15:05.906Z,21.59
2023-04-21T15:17:34.178Z,21.71
2023-04-21T15:20:01.589Z,21.24
2023-04-21T15:22:30.402Z,21.12
2023-04-21T15:24:57.918Z,20.85
2023-04-21T15:27:25.389Z,20.77
2023-04-21T15:29:53.091Z,21.43
2023-04-21T15:32:20.595Z,21.43
2023-04-21T15:34:49.088Z,21.11
2023-04-21T15:37:17.760Z,21.28
2023-04-21T15:39:45.169Z,21.00
2023-04-21T15:42:12.693Z,21.12
2023-04-21T15:44:40.451Z,21.04
2023-04-21T15:47:07.964Z,21.91
2023-04-21T15:49:35.612Z,21.47
2023-04-21T15:52:04.951Z,22.01
2023-04-21T15:54:34.237Z,21.79
2023-04-21T15:57:05.563Z,21.38
2023-04-21T15:59:33.267Z,21.27
2023-04-21T16:02:00.799Z,20.86
2023-04-21T16:04:28.736Z,20.06
2023-04-21T16:06:56.533Z,20.16
2023-04-21T16:09:24.135Z,20.49
2023-04-21T16:11:52.056Z,20.74
2023-04-21T16:14:19.542Z,20.60
2023-04-21T16:16:46.949Z,20.73
2023-04-21T16:19:14.717Z,20.60
2023-04-21T16:21:42.685Z,20.81
2023-04-21T16:24:10.322Z,20.79
2023-04-21T16:26:38.205Z,20.41
2023-04-21T16:29:05.782Z,20.65
2023-04-21T16:31:33.361Z,20.61
2023-04-21T16:34:01.300Z,21.16
2023-04-21T16:36:28.868Z,21.43
2023-04-21T16:38:56.427Z,21.91
2023-04-21T16:41:24.441Z,21.17
2023-04-21T16:43:51.892Z,21.50
2023-04-21T16:46:19.359Z,21.43
2023-04-21T16:48:47.387Z,20.86
2023-04-21T16:51:14.977Z,21.16
2023-04-21T16:53:42.606Z,20.91
2023-04-21T16:56:10.239Z,20.74
2023-04-21T16:58:37.970Z,20.67
2023-04-21T17:01:07.683Z,20.28
2023-04-21T17:03:35.716Z,19.87
2023-04-21T17:06:05.008Z,20.19
2023-04-21T17:08:33.006Z,19.47
2023-04-21T17:11:00.726Z,19.08
2023-04-21T17:13:28.403Z,18.45
2023-04-21T17:15:56.137Z,18.42
2023-04-21T17:18:23.793Z,17.77
2023-04-21T17:20:51.196Z,17.82
2023-04-21T17:23:18.553Z,17.78
2023-04-21T17:25:46.403Z,18.01
2023-04-21T17:28:15.334Z,17.73
2023-04-21T17:30:42.786Z,17.90
2023-04-21T17:35:55.857Z,17.82
2023-04-21T17:38:29.739Z,18.17
2023-04-21T17:40:57.177Z,17.95
2023-04-21T17:43:24.631Z,18.08
2023-04-21T17:45:53.104Z,17.99
2023-04-21T17:48:21.254Z,17.91
2023-04-21T17:50:48.636Z,17.47
2023-04-21T17:53:17.420Z,17.00
2023-04-21T17:55:44.989Z,17.12
2023-04-21T17:58:12.764Z,16.97
2023-04-21T18:00:40.996Z,16.73
2023-04-21T18:03:08.884Z,16.49
2023-04-21T18:05:36.564Z,16.24
2023-04-21T18:08:04.210Z,16.35
2023-04-21T18:10:31.896Z,16.36
2023-04-21T18:12:59.599Z,16.34
2023-04-21T18:15:27.066Z,16.26
2023-04-21T18:17:55.109Z,15.90
2023-04-21T18:20:22.510Z,15.75
2023-04-21T18:22:51.770Z,15.64
2023-04-21T18:25:34.051Z,15.73
2023-04-21T18:28:08.214Z,15.71
2023-04-21T18:30:36.129Z,15.78
2023-04-21T18:33:03.972Z,15.84
2023-04-21T18:35:34.466Z,15.63
2023-04-21T18:38:02.558Z,15.27
2023-04-21T18:40:30.824Z,14.89
2023-04-21T18:42:58.581Z,14.88
2023-04-21T18:45:27.704Z,14.85
2023-04-21T18:47:55.806Z,14.79
2023-04-21T18:50:23.470Z,14.41
2023-04-21T18:52:52.219Z,14.08
2023-04-21T18:55:20.458Z,14.40
2023-04-21T18:57:48.309Z,14.66
2023-04-21T19:00:16.377Z,14.72
2023-04-21T19:02:48.848Z,14.89
2023-04-21T19:05:17.522Z,14.80
2023-04-21T19:07:45.182Z,14.66
2023-04-21T19:10:14.803Z,14.68
2023-04-21T19:12:42.839Z,14.35
2023-04-21T19:15:10.557Z,14.14
2023-04-21T19:17:40.158Z,14.11
2023-04-21T19:20:08.685Z,14.03
2023-04-21T19:22:36.436Z,13.91
2023-04-21T19:25:04.224Z,14.01
2023-04-21T19:27:33.182Z,13.79
2023-04-21T19:30:01.407Z,13.74
2023-04-21T19:32:29.361Z,13.56
2023-04-21T19:34:59.311Z,13.49
2023-04-21T19:37:28.627Z,13.28
2023-04-21T19:39:57.492Z,12.90
2023-04-21T19:42:25.670Z,12.81
2023-04-21T19:44:53.628Z,12.72
2023-04-21T19:47:21.375Z,12.72
2023-04-21T19:49:49.880Z,12.92
2023-04-21T19:52:17.537Z,12.95
2023-04-21T19:54:45.715Z,12.77
2023-04-21T19:57:17.936Z,12.89
2023-04-21T19:59:45.568Z,12.69
2023-04-21T20:02:14.037Z,12.65
2023-04-21T20:04:45.448Z,12.58
2023-04-21T20:07:13.228Z,12.69
2023-04-21T20:09:41.136Z,12.41
2023-04-21T20:12:10.475Z,12.56
2023-04-21T20:14:39.044Z,12.28
2023-04-21T20:17:06.633Z,12.33
2023-04-21T20:19:35.875Z,12.22
2023-04-21T20:22:03.965Z,12.04
2023-04-21T20:24:31.832Z,11.95
2023-04-21T20:26:59.882Z,11.71
2023-04-21T20:29:27.483Z,11.77
2023-04-21T20:31:54.976Z,11.63
2023-04-21T20:34:22.770Z,11.39
2023-04-21T20:36:51.713Z,11.41
2023-04-21T20:39:19.169Z,11.53
2023-04-21T20:41:51.038Z,11.31
2023-04-21T20:44:31.184Z,11.30
2023-04-21T20:47:00.782Z,11.08
2023-04-21T20:49:28.492Z,11.07
2023-04-21T20:51:57.836Z,11.24
2023-04-21T20:54:25.919Z,11.26
2023-04-21T20:56:53.704Z,11.19
2023-04-21T20:59:21.235Z,11.26
2023-04-21T21:01:48.941Z,11.10
2023-04-21T21:04:16.458Z,11.29
2023-04-21T21:06:43.977Z,11.61
2023-04-21T21:09:11.802Z,11.32
2023-04-21T21:11:39.176Z,11.05
2023-04-21T21:14:06.581Z,11.40
2023-04-21T21:16:34.377Z,11.24
2023-04-21T21:19:01.767Z,11.21
2023-04-21T21:21:29.115Z,10.92
2023-04-21T21:23:59.184Z,11.28
2023-04-21T21:26:27.023Z,11.11
2023-04-21T21:28:54.382Z,10.76
2023-04-21T21:31:22.098Z,10.67
2023-04-21T21:33:49.564Z,10.48
2023-04-21T21:36:17.101Z,10.71
2023-04-21T21:38:44.910Z,10.62
2023-04-21T21:41:14.010Z,10.48
2023-04-21T21:43:41.418Z,10.57
2023-04-21T21:46:09.166Z,10.49
2023-04-21T21:48:36.603Z,10.34
2023-04-21T21:51:05.694Z,10.54
2023-04-21T21:53:34.024Z,10.40
2023-04-21T21:56:01.206Z,10.53
2023-04-21T21:58:28.383Z,10.61
2023-04-21T22:00:55.999Z,10.49
2023-04-21T22:03:23.621Z,10.67
2023-04-21T22:05:50.906Z,10.29
2023-04-21T22:08:18.310Z,10.38
2023-04-21T22:10:45.757Z,10.46
2023-04-21T22:13:12.928Z,10.23
2023-04-21T22:15:40.183Z,10.60
2023-04-21T22:18:08.125Z,10.26
2023-04-21T22:20:35.923Z,10.20
2023-04-21T22:23:03.707Z,10.45
2023-04-21T22:25:31.715Z,10.04
2023-04-21T22:27:58.978Z,10.30
2023-04-21T22:30:26.220Z,10.09
2023-04-21T22:32:53.713Z,9.91
2023-04-21T22:35:20.925Z,9.90
2023-04-21T22:37:48.442Z,10.07
2023-04-21T22:40:15.916Z,10.22
2023-04-21T22:42:43.097Z,10.20
2023-04-21T22:45:10.456Z,10.35
2023-04-21T22:47:37.952Z,10.27
2023-04-21T22:50:05.523Z,10.20
2023-04-21T22:52:33.062Z,10.14
2023-04-21T22:55:00.495Z,10.07
2023-04-21T22:57:27.690Z,9.86
2023-04-21T22:59:54.944Z,9.95
2023-04-21T23:02:22.718Z,9.99
2023-04-21T23:04:50.399Z,9.96
2023-04-21T23:07:17.589Z,9.73
2023-04-21T23:09:45.029Z,9.74
2023-04-21T23:12:12.178Z,9.95
2023-04-21T23:14:39.360Z,9.96
2023-04-21T23:17:06.964Z,10.11
2023-04-21T23:19:34.115Z,10.29
2023-04-21T23:22:01.297Z,10.17
2023-04-21T23:24:28.737Z,10.19
2023-04-21T23:26:56.449Z,10.11
2023-04-21T23:29:23.632Z,10.18
2023-04-21T23:31:51.132Z,10.19
2023-04-21T23:34:18.286Z,11.09
2023-04-21T23:36:45.478Z,10.38
2023-04-21T23:39:12.911Z,11.34
2023-04-21T23:41:40.092Z,11.60
2023-04-21T23:44:07.440Z,11.37
2023-04-21T23:46:34.893Z,11.38
2023-04-21T23:49:02.148Z,11.52
2023-04-21T23:51:29.360Z,11.80
2023-04-21T23:53:56.761Z,11.07
2023-04-21T23:56:24.211Z,11.12
2023-04-21T23:58:51.793Z,12.10
